createdAt,value
2018-09-18T00:16:33.509Z,5.30
2018-09-18T00:21:54.665Z,4.97
2018-09-18T00:24:23.061Z,5.27
2018-09-18T00:26:51.375Z,5.27
2018-09-18T00:29:19.674Z,5.47
2018-09-18T00:31:47.970Z,5.40
2018-09-18T00:34:16.303Z,5.80
2018-09-18T00:36:45.546Z,5.30
2018-09-18T00:39:13.843Z,5.07
2018-09-18T00:41:42.156Z,4.90
2018-09-18T00:44:10.495Z,5.47
2018-09-18T00:46:38.756Z,5.13
2018-09-18T00:49:07.047Z,5.77
2018-09-18T00:51:35.358Z,5.83
2018-09-18T00:54:03.602Z,5.07
2018-09-18T00:56:32.491Z,5.30
2018-09-18T00:59:00.739Z,5.10
2018-09-18T01:01:28.964Z,5.40
2018-09-18T01:03:57.198Z,4.77
2018-09-18T01:06:25.480Z,5.53
2018-09-18T01:08:53.724Z,5.20
2018-09-18T01:11:21.987Z,5.23
2018-09-18T01:20:07.474Z,5.03
2018-09-18T01:25:34.769Z,5.30
2018-09-18T02:22:43.654Z,5.17
2018-09-18T03:14:10.042Z,5.73
2018-09-18T03:16:38.339Z,6.03
2018-09-18T03:19:06.653Z,6.93
2018-09-18T04:22:21.702Z,7.10
2018-09-18T04:24:50.063Z,7.47
2018-09-18T04:27:18.372Z,7.40
2018-09-18T04:29:46.657Z,7.03
2018-09-18T04:32:14.942Z,7.03
2018-09-18T04:34:43.253Z,7.50
2018-09-18T04:37:11.549Z,7.10
2018-09-18T04:39:39.826Z,7.33
2018-09-18T04:42:08.122Z,6.90
2018-09-18T04:44:36.440Z,6.67
2018-09-18T04:47:04.713Z,6.77
2018-09-18T04:49:33.014Z,6.67
2018-09-18T04:52:01.292Z,6.33
2018-09-18T04:54:29.534Z,6.50
2018-09-18T04:56:57.806Z,6.57
2018-09-18T04:59:26.119Z,6.87
2018-09-18T05:01:54.364Z,7.23
2018-09-18T05:04:23.038Z,6.97
2018-09-18T05:06:51.287Z,7.50
2018-09-18T05:09:19.575Z,6.93
2018-09-18T05:11:47.801Z,7.33
2018-09-18T06:27:36.484Z,6.80
2018-09-18T06:30:05.024Z,6.67
2018-09-18T06:32:33.478Z,6.60
2018-09-18T06:35:01.817Z,6.50
2018-09-18T06:37:30.202Z,6.10
2018-09-18T06:39:58.499Z,7.00
2018-09-18T06:42:26.851Z,6.70
2018-09-18T06:44:55.159Z,6.60
2018-09-18T06:47:24.071Z,6.30
2018-09-18T06:49:52.364Z,6.13
2018-09-18T06:52:20.671Z,6.10
2018-09-18T06:54:48.997Z,6.63
2018-09-18T06:57:17.234Z,6.40
2018-09-18T06:59:45.506Z,6.83
2018-09-18T07:02:13.769Z,6.60
2018-09-18T07:04:42.003Z,6.00
2018-09-18T07:07:10.370Z,6.00
2018-09-18T07:09:38.711Z,6.10
2018-09-18T07:12:07.116Z,5.93
2018-09-18T07:17:28.143Z,6.47
2018-09-18T07:20:06.536Z,5.80
2018-09-18T07:25:27.763Z,5.60
2018-09-18T07:27:56.040Z,5.37
2018-09-18T07:30:24.287Z,6.13
2018-09-18T07:32:52.554Z,5.53
2018-09-18T07:35:20.812Z,5.63
2018-09-18T07:37:49.084Z,5.70
2018-09-18T07:40:17.364Z,5.53
2018-09-18T07:42:45.628Z,5.50
2018-09-18T07:48:06.390Z,5.43
2018-09-18T07:50:34.601Z,5.67
2018-09-18T07:53:02.888Z,5.93
2018-09-18T07:55:31.141Z,5.23
2018-09-18T07:57:59.443Z,5.23
2018-09-18T08:00:27.694Z,5.50
2018-09-18T08:02:55.944Z,5.33
2018-09-18T08:05:24.191Z,5.33
2018-09-18T08:07:52.392Z,5.37
2018-09-18T08:10:20.626Z,5.17
2018-09-18T08:21:38.940Z,5.20
2018-09-18T08:24:20.561Z,5.30
2018-09-18T09:12:42.869Z,4.90
2018-09-18T09:15:11.203Z,5.00
2018-09-18T09:17:39.513Z,5.10
2018-09-18T09:25:52.648Z,5.17
2018-09-18T09:28:20.924Z,5.47
2018-09-18T09:30:49.340Z,5.10
2018-09-18T09:33:17.655Z,5.30
2018-09-18T09:35:46.009Z,5.10
2018-09-18T09:38:14.300Z,5.10
2018-09-18T09:40:42.621Z,5.23
2018-09-18T09:43:10.965Z,5.40
2018-09-18T09:45:39.246Z,5.20
2018-09-18T09:48:07.574Z,4.43
2018-09-18T09:50:35.800Z,5.03
2018-09-18T09:53:04.074Z,4.77
2018-09-18T09:55:32.418Z,4.80
2018-09-18T09:58:00.690Z,5.00
2018-09-18T10:00:34.338Z,5.00
2018-09-18T10:03:02.676Z,5.20
2018-09-18T10:05:30.886Z,4.97
2018-09-18T10:07:59.129Z,4.90
2018-09-18T10:10:27.382Z,5.40
2018-09-18T10:24:49.103Z,4.77
2018-09-18T12:33:54.168Z,3.70
2018-09-18T12:36:22.478Z,3.77
2018-09-18T12:38:50.761Z,3.80
2018-09-18T12:41:19.095Z,3.70
2018-09-18T12:43:47.458Z,3.77
2018-09-18T12:46:15.745Z,3.90
2018-09-18T12:48:44.012Z,3.90
2018-09-18T12:51:12.297Z,3.97
2018-09-18T12:53:40.626Z,4.37
2018-09-18T12:56:08.964Z,3.70
2018-09-18T12:58:37.174Z,3.67
2018-09-18T13:01:05.550Z,3.70
2018-09-18T13:03:33.789Z,3.50
2018-09-18T13:06:02.043Z,3.63
2018-09-18T13:08:30.263Z,3.40
2018-09-18T13:10:58.513Z,3.30
2018-09-18T13:19:23.314Z,3.40
2018-09-18T14:16:06.921Z,4.63
2018-09-18T14:24:30.662Z,4.70
2018-09-18T15:15:46.559Z,7.47
2018-09-18T16:21:28.591Z,6.70
2018-09-18T16:23:56.892Z,7.17
2018-09-18T17:23:57.092Z,8.93
2018-09-18T17:29:18.110Z,9.00
2018-09-18T17:31:47.039Z,9.63
2018-09-18T17:34:15.357Z,9.40
2018-09-18T17:36:43.630Z,9.57
2018-09-18T17:39:12.467Z,8.60
2018-09-18T17:41:40.928Z,9.33
2018-09-18T17:44:09.773Z,9.87
2018-09-18T17:46:38.080Z,9.57
2018-09-18T17:49:06.507Z,9.43
2018-09-18T17:51:34.805Z,10.43
2018-09-18T17:54:03.100Z,9.50
2018-09-18T17:56:31.454Z,9.63
2018-09-18T17:58:59.731Z,9.50
2018-09-18T18:01:28.110Z,9.83
2018-09-18T18:03:56.390Z,9.47
2018-09-18T18:06:24.643Z,9.80
2018-09-18T18:08:52.881Z,8.93
2018-09-18T18:11:21.148Z,9.37
2018-09-18T18:38:08.723Z,8.25
2018-09-18T18:40:37.018Z,8.10
2018-09-18T18:43:05.322Z,8.10
2018-09-18T18:45:33.617Z,8.30
2018-09-18T18:48:02.155Z,8.03
2018-09-18T18:50:31.438Z,7.93
2018-09-18T18:52:59.734Z,7.90
2018-09-18T18:55:28.101Z,7.07
2018-09-18T18:57:56.434Z,7.80
2018-09-18T19:00:24.722Z,7.53
2018-09-18T19:02:53.066Z,6.80
2018-09-18T19:05:21.365Z,7.03
2018-09-18T19:07:49.647Z,7.33
2018-09-18T19:10:17.874Z,6.77
2018-09-18T19:12:46.101Z,6.03
2018-09-18T19:15:14.358Z,6.93
2018-09-18T19:17:42.606Z,6.67
2018-09-18T19:20:10.977Z,6.50
2018-09-18T19:25:32.697Z,6.73
2018-09-18T19:28:00.952Z,6.70
2018-09-18T19:30:29.210Z,6.53
2018-09-18T19:32:57.527Z,6.53
2018-09-18T19:35:25.754Z,6.83
2018-09-18T19:37:54.001Z,6.43
2018-09-18T19:40:22.241Z,6.50
2018-09-18T19:42:50.511Z,6.67
2018-09-18T19:45:18.802Z,6.73
2018-09-18T19:47:47.033Z,6.33
2018-09-18T19:50:15.447Z,6.40
2018-09-18T19:52:46.173Z,7.27
2018-09-18T19:55:14.978Z,7.37
2018-09-18T19:57:43.229Z,7.60
2018-09-18T20:00:12.149Z,8.57
2018-09-18T20:02:40.816Z,10.87
2018-09-18T20:05:09.062Z,12.60
2018-09-18T20:07:37.327Z,13.67
2018-09-18T20:10:05.765Z,14.60
2018-09-18T20:12:34.019Z,14.43
2018-09-18T20:15:02.329Z,15.03
2018-09-18T20:17:30.556Z,14.27
2018-09-18T20:28:33.266Z,15.17
2018-09-18T20:31:01.531Z,15.50
2018-09-18T20:33:29.798Z,14.67
2018-09-18T20:35:58.196Z,15.47
2018-09-18T20:38:26.484Z,15.40
2018-09-18T20:40:54.746Z,15.43
2018-09-18T20:43:23.025Z,14.90
2018-09-18T20:45:51.305Z,16.00
2018-09-18T20:48:19.636Z,15.33
2018-09-18T20:50:47.956Z,15.10
2018-09-18T20:53:16.198Z,15.43
2018-09-18T20:55:44.619Z,16.20
2018-09-18T20:58:12.882Z,16.20
2018-09-18T21:00:41.165Z,16.40
2018-09-18T21:03:09.500Z,16.33
2018-09-18T21:05:37.766Z,16.20
2018-09-18T21:08:06.027Z,16.17
2018-09-18T21:10:34.297Z,17.73
2018-09-18T21:21:51.434Z,14.60
2018-09-18T21:30:28.628Z,15.07
2018-09-18T21:32:56.985Z,13.57
2018-09-18T21:35:25.253Z,14.30
2018-09-18T21:37:53.571Z,14.27
2018-09-18T21:40:21.879Z,13.73
2018-09-18T21:42:50.154Z,14.53
2018-09-18T21:45:18.413Z,15.93
2018-09-18T21:47:46.684Z,14.50
2018-09-18T21:50:15.014Z,15.07
2018-09-18T21:52:43.345Z,16.43
2018-09-18T21:55:11.629Z,15.77
2018-09-18T21:57:39.881Z,15.77
2018-09-18T22:00:08.178Z,16.93
2018-09-18T22:02:36.422Z,16.27
2018-09-18T22:05:04.694Z,16.40
2018-09-18T22:07:32.946Z,17.17
2018-09-18T22:10:01.195Z,15.80
2018-09-18T22:12:29.522Z,16.80
2018-09-18T22:17:50.695Z,17.77
2018-09-18T22:23:11.461Z,15.97
2018-09-18T22:25:39.709Z,15.83
2018-09-18T23:23:27.702Z,12.93
2018-09-18T23:25:59.021Z,14.13
2018-09-18T23:28:27.335Z,13.07
2018-09-18T23:30:56.643Z,12.40
2018-09-18T23:33:24.945Z,12.30
2018-09-18T23:35:53.297Z,11.90
2018-09-18T23:38:21.622Z,11.13
2018-09-18T23:40:49.915Z,10.17
2018-09-18T23:43:18.249Z,11.47
2018-09-18T23:45:46.521Z,10.47
2018-09-18T23:48:14.786Z,10.50
2018-09-18T23:50:43.062Z,10.37
2018-09-18T23:53:11.315Z,10.33
2018-09-18T23:55:45.842Z,9.87
2018-09-18T23:58:14.136Z,9.77
